Time;durP1;ratioP1;P1;durP2;ratioP2;P2;SDS_P1;SDS_P2;PMS_P1;PMS_P2;Temp;Humidity;BMP_temperature;BMP_pressure;BME280_temperature;BME280_humidity;BME280_pressure;Samples;Min_cycle;Max_cycle;Signal;HPM_P1;HPM_P2
2021/11/02 00:02:08;;;;;;;4.90;2.33;;;7.60;40.50;;;;;;5075180;28;20042;-69
2021/11/02 00:04:38;;;;;;;5.90;2.38;;;7.70;40.60;;;;;;5073598;28;20047;-69
2021/11/02 00:07:07;;;;;;;6.32;2.30;;;7.70;39.60;;;;;;5070389;28;20051;-68
2021/11/02 00:09:44;;;;;;;5.47;2.55;;;7.80;39.80;;;;;;5069796;28;20051;-69
2021/11/02 00:12:13;;;;;;;3.22;2.15;;;7.80;40.00;;;;;;5058194;28;20510;-69
2021/11/02 00:14:41;;;;;;;3.13;1.85;;;7.90;38.80;;;;;;5059334;28;20044;-68
2021/11/02 00:17:13;;;;;;;3.42;2.05;;;7.90;38.00;;;;;;5071230;28;20134;-68
2021/11/02 00:19:44;;;;;;;3.70;2.10;;;7.90;38.60;;;;;;5063436;28;20056;-68
2021/11/02 00:22:16;;;;;;;3.00;1.63;;;8.00;38.40;;;;;;5076748;28;20051;-68
2021/11/02 00:25:05;;;;;;;7.18;2.05;;;8.00;37.60;;;;;;5083909;28;20043;-69
2021/11/02 00:27:37;;;;;;;3.55;1.80;;;8.00;38.00;;;;;;5070154;28;20419;-69
2021/11/02 00:30:09;;;;;;;6.13;2.60;;;8.10;37.00;;;;;;5068354;28;20123;-68
2021/11/02 00:32:43;;;;;;;2.88;2.00;;;8.10;37.40;;;;;;5067911;28;20052;-69
2021/11/02 00:35:11;;;;;;;3.28;1.70;;;8.10;37.20;;;;;;5067315;28;20925;-68
2021/11/02 00:37:42;;;;;;;2.75;1.58;;;8.20;36.60;;;;;;5071714;28;20101;-69
2021/11/02 00:40:15;;;;;;;5.65;2.10;;;8.20;36.50;;;;;;5067317;28;20055;-68
2021/11/02 00:42:52;;;;;;;3.55;1.70;;;8.30;36.60;;;;;;5065264;28;20414;-68
2021/11/02 00:45:30;;;;;;;4.15;1.80;;;8.30;35.40;;;;;;5065380;28;20082;-67
2021/11/02 00:48:05;;;;;;;4.22;1.50;;;8.30;34.70;;;;;;5069219;28;20336;-67
2021/11/02 00:50:39;;;;;;;3.53;1.70;;;8.40;34.10;;;;;;5063279;28;20109;-68
2021/11/02 00:53:10;;;;;;;5.25;2.40;;;8.40;33.90;;;;;;5065963;28;20554;-68
2021/11/02 00:55:44;;;;;;;3.15;1.60;;;8.40;33.90;;;;;;5072538;28;20080;-68
2021/11/02 00:58:16;;;;;;;4.78;2.70;;;8.40;33.90;;;;;;5080255;28;20039;-69
2021/11/02 01:00:46;;;;;;;2.72;1.75;;;8.30;34.40;;;;;;5086067;28;20339;-69
2021/11/02 01:03:18;;;;;;;3.25;1.50;;;8.30;36.40;;;;;;5089436;28;20044;-69
2021/11/02 01:05:49;;;;;;;;;;;8.30;36.60;;;;;;5092034;27;20134;-68
2021/11/02 01:08:20;;;;;;;2.90;1.60;;;8.30;36.60;;;;;;5093898;28;19932;-68
2021/11/02 01:10:52;;;;;;;2.70;1.73;;;8.30;36.60;;;;;;5088027;28;20051;-68
2021/11/02 01:13:23;;;;;;;5.18;1.90;;;8.30;38.10;;;;;;5090800;28;20039;-68
2021/11/02 01:15:52;;;;;;;3.25;2.00;;;8.30;38.20;;;;;;5092421;27;20414;-68
2021/11/02 01:18:21;;;;;;;3.42;1.85;;;8.30;37.90;;;;;;5089887;28;20068;-68
2021/11/02 01:20:49;;;;;;;4.57;2.28;;;8.30;37.70;;;;;;5090920;28;20432;-68
2021/11/02 01:23:17;;;;;;;8.80;1.90;;;8.40;37.40;;;;;;5088528;28;20246;-68
2021/11/02 01:25:46;;;;;;;5.20;2.22;;;8.40;37.60;;;;;;5075560;28;20051;-68
2021/11/02 01:28:20;;;;;;;2.65;1.88;;;8.30;38.40;;;;;;5090223;27;20055;-70
2021/11/02 01:30:49;;;;;;;4.40;2.05;;;8.30;39.40;;;;;;5089972;28;20366;-69
2021/11/02 01:33:18;;;;;;;3.40;1.95;;;8.40;39.40;;;;;;5093069;28;20051;-69
2021/11/02 01:35:46;;;;;;;4.20;1.77;;;8.50;38.30;;;;;;5090980;27;20426;-69
2021/11/02 01:38:20;;;;;;;8.45;1.92;;;8.40;36.70;;;;;;5088492;28;20979;-69
2021/11/02 01:40:48;;;;;;;2.80;1.50;;;8.40;36.70;;;;;;5088611;28;20492;-68
2021/11/02 01:43:18;;;;;;;3.20;1.90;;;8.40;37.90;;;;;;5089316;28;20063;-68
2021/11/02 01:45:49;;;;;;;4.80;1.77;;;8.50;38.80;;;;;;5088054;27;20499;-68
2021/11/02 01:48:19;;;;;;;2.92;1.38;;;8.60;40.10;;;;;;5090692;27;20043;-69
2021/11/02 01:50:48;;;;;;;3.45;1.38;;;8.60;40.90;;;;;;5085415;27;20411;-69
2021/11/02 01:53:16;;;;;;;3.53;1.98;;;8.50;40.50;;;;;;5091819;27;20047;-68
2021/11/02 01:55:47;;;;;;;3.15;1.30;;;8.50;41.00;;;;;;5092693;28;20277;-68
2021/11/02 01:58:17;;;;;;;2.22;1.13;;;8.60;41.80;;;;;;5092166;28;20147;-68
2021/11/02 02:00:52;;;;;;;4.03;1.30;;;8.50;42.60;;;;;;5100836;27;20732;-68
2021/11/02 02:03:33;;;;;;;2.53;1.10;;;8.50;42.60;;;;;;5099493;28;20052;-68
2021/11/02 02:06:12;;;;;;;6.32;1.30;;;8.50;43.50;;;;;;5105516;27;20521;-67
2021/11/02 02:08:49;;;;;;;3.33;1.20;;;8.50;44.00;;;;;;5077676;28;20055;-70
2021/11/02 02:11:26;;;;;;;3.03;1.30;;;8.50;44.60;;;;;;5099041;28;20052;-67
2021/11/02 02:14:06;;;;;;;4.25;1.70;;;8.50;44.00;;;;;;5094528;28;20157;-67
2021/11/02 02:16:38;;;;;;;6.35;1.30;;;8.50;43.50;;;;;;5099372;28;20051;-67
2021/11/02 02:19:26;;;;;;;2.05;1.05;;;8.50;43.10;;;;;;5100836;28;20656;-67
2021/11/02 02:22:07;;;;;;;6.90;1.48;;;8.50;42.20;;;;;;5101141;28;20051;-68
2021/11/02 02:24:53;;;;;;;2.35;1.35;;;8.50;43.80;;;;;;5101564;28;20135;-68
2021/11/02 02:27:30;;;;;;;2.65;1.40;;;8.50;44.10;;;;;;5097609;28;20040;-69
2021/11/02 02:30:06;;;;;;;2.95;1.40;;;8.50;45.10;;;;;;5098800;28;20040;-69
2021/11/02 02:32:39;;;;;;;3.75;1.77;;;8.40;45.10;;;;;;5097268;28;20157;-69
2021/11/02 02:35:12;;;;;;;4.28;1.90;;;8.50;45.80;;;;;;5097852;28;20046;-69
2021/11/02 02:37:42;;;;;;;3.33;1.95;;;8.40;46.60;;;;;;5100002;28;20052;-69
2021/11/02 02:40:13;;;;;;;3.35;1.60;;;8.40;47.90;;;;;;5096558;28;20036;-69
2021/11/02 02:42:44;;;;;;;5.72;2.00;;;8.30;47.00;;;;;;5093925;28;20047;-69
2021/11/02 02:45:15;;;;;;;8.45;2.30;;;8.40;48.00;;;;;;5080941;28;20422;-69
2021/11/02 02:47:49;;;;;;;3.67;1.73;;;8.30;48.20;;;;;;5099841;28;20498;-70
2021/11/02 02:50:19;;;;;;;4.90;2.03;;;8.40;48.50;;;;;;5101993;28;20051;-69
2021/11/02 02:52:49;;;;;;;3.00;1.55;;;8.40;48.60;;;;;;5088704;28;20131;-70
2021/11/02 02:55:20;;;;;;;5.40;1.75;;;8.40;47.80;;;;;;5086804;28;20097;-69
2021/11/02 02:57:49;;;;;;;4.00;1.50;;;8.50;47.50;;;;;;5104975;27;20121;-69
2021/11/02 03:00:18;;;;;;;6.90;1.83;;;8.40;46.80;;;;;;5101616;28;20043;-69
2021/11/02 03:02:52;;;;;;;5.18;1.80;;;8.50;46.70;;;;;;5101797;28;20066;-70
2021/11/02 03:05:24;;;;;;;2.53;1.38;;;8.50;46.10;;;;;;5099023;28;20491;-69
2021/11/02 03:07:55;;;;;;;6.47;1.75;;;8.40;45.40;;;;;;5100704;28;20048;-69
2021/11/02 03:10:25;;;;;;;3.72;1.42;;;8.40;45.00;;;;;;5096005;28;20112;-69
2021/11/02 03:12:58;;;;;;;1.60;1.27;;;8.30;44.90;;;;;;5099191;28;20140;-69
2021/11/02 03:15:52;;;;;;;5.45;1.58;;;8.30;45.00;;;;;;5106029;27;20044;-70
2021/11/02 03:44:32;;;;;;;6.10;2.33;;;8.10;47.60;;;;;;5103895;28;20043;-68
2021/11/02 03:50:02;;;;;;;4.68;3.08;;;8.10;50.10;;;;;;5101239;28;20043;-68
2021/11/02 03:55:24;;;;;;;4.75;3.17;;;7.90;50.60;;;;;;5104690;28;20127;-68
2021/11/02 03:57:57;;;;;;;3.70;3.03;;;7.90;50.60;;;;;;5100537;28;20816;-68
2021/11/02 04:00:56;;;;;;;4.05;3.08;;;7.90;51.30;;;;;;5096336;28;20039;-69
2021/11/02 04:23:34;;;;;;;5.03;1.75;;;7.90;46.70;;;;;;5050660;28;20059;-69
2021/11/02 04:32:11;;;;;;;1.73;1.38;;;7.80;44.40;;;;;;5095250;28;20066;-68
2021/11/02 04:35:14;;;;;;;2.20;1.70;;;7.70;44.30;;;;;;5098739;28;20040;-68
2021/11/02 05:09:45;;;;;;;3.20;1.90;;;7.30;48.50;;;;;;5044443;28;20499;-69
2021/11/02 05:12:45;;;;;;;3.58;2.08;;;7.20;47.40;;;;;;5082486;28;20483;-68
2021/11/02 05:49:36;;;;;;;3.25;1.85;;;6.80;46.50;;;;;;5061218;28;20537;-68
2021/11/02 05:55:19;;;;;;;6.22;2.50;;;6.80;48.00;;;;;;5063339;28;20054;-68
2021/11/02 05:58:18;;;;;;;5.55;2.50;;;6.80;47.90;;;;;;5093215;28;20056;-68
2021/11/02 06:00:57;;;;;;;3.35;2.33;;;6.80;47.70;;;;;;5095002;28;20117;-68
2021/11/02 06:03:36;;;;;;;4.10;2.15;;;6.80;47.80;;;;;;5089893;28;20052;-70
2021/11/02 06:06:11;;;;;;;6.50;2.00;;;6.70;47.70;;;;;;5096405;28;20052;-69
2021/11/02 06:23:44;;;;;;;4.20;1.70;;;6.80;46.60;;;;;;5091468;28;20046;-69
2021/11/02 06:29:04;;;;;;;4.05;2.22;;;6.70;46.40;;;;;;5098398;28;20039;-68
2021/11/02 06:31:38;;;;;;;4.22;2.38;;;6.70;46.20;;;;;;5106155;28;20043;-68
2021/11/02 06:34:12;;;;;;;4.13;3.03;;;6.70;46.40;;;;;;5111029;28;20126;-68
2021/11/02 06:40:08;;;;;;;3.03;2.47;;;6.60;46.30;;;;;;5102782;28;20051;-68
2021/11/02 06:43:14;;;;;;;3.22;2.67;;;6.60;46.20;;;;;;5099068;28;20043;-66
2021/11/02 06:48:53;;;;;;;4.85;2.65;;;6.70;45.40;;;;;;5095451;28;20042;-68
2021/11/02 06:51:38;;;;;;;3.97;2.90;;;6.70;46.00;;;;;;5095359;28;20055;-68
2021/11/02 06:54:38;;;;;;;5.93;2.20;;;6.70;45.00;;;;;;5104175;28;20047;-68
2021/11/02 06:57:25;;;;;;;5.05;2.70;;;6.80;44.70;;;;;;5074412;28;20048;-69
2021/11/02 07:00:17;;;;;;;5.20;2.63;;;6.80;44.00;;;;;;5099348;28;20467;-68
2021/11/02 07:17:33;;;;;;;3.85;2.40;;;7.40;39.70;;;;;;5093659;28;20071;-68
2021/11/02 07:20:25;;;;;;;6.10;2.90;;;7.40;38.20;;;;;;5099507;28;20036;-68
2021/11/02 07:23:04;;;;;;;5.75;2.42;;;7.50;38.10;;;;;;5098578;28;20567;-68
2021/11/02 07:25:42;;;;;;;4.55;2.13;;;7.60;36.70;;;;;;5101384;28;20441;-69
2021/11/02 08:47:31;;;;;;;7.95;3.30;;;10.30;15.60;;;;;;5053121;28;20066;-68
2021/11/02 08:50:06;;;;;;;6.90;2.63;;;10.30;16.20;;;;;;5086074;28;20032;-68
2021/11/02 08:52:39;;;;;;;5.32;2.15;;;10.30;14.40;;;;;;5082129;28;20180;-69
2021/11/02 08:55:11;;;;;;;11.85;2.60;;;10.30;14.60;;;;;;5071514;28;20396;-69
2021/11/02 08:57:40;;;;;;;4.45;1.77;;;10.30;15.20;;;;;;5099458;28;20048;-69
2021/11/02 09:00:09;;;;;;;3.75;1.52;;;10.30;12.60;;;;;;5083806;28;20043;-68
2021/11/02 09:02:45;;;;;;;5.63;1.17;;;10.30;12.40;;;;;;5093466;28;20492;-68
2021/11/02 09:05:19;;;;;;;4.93;1.15;;;10.40;11.70;;;;;;5083581;28;20389;-68
2021/11/02 09:07:52;;;;;;;1.63;0.88;;;10.40;11.70;;;;;;5092142;28;20522;-68
2021/11/02 09:10:22;;;;;;;1.48;0.98;;;10.20;12.40;;;;;;5096477;28;20139;-68
2021/11/02 09:12:52;;;;;;;6.18;1.20;;;10.30;14.30;;;;;;5094334;28;20047;-68
2021/11/02 09:15:25;;;;;;;1.88;1.00;;;10.20;13.00;;;;;;5094550;28;20157;-68
2021/11/02 09:17:55;;;;;;;2.88;1.15;;;10.30;14.30;;;;;;5082615;28;20054;-68
2021/11/02 09:20:24;;;;;;;2.90;0.90;;;10.20;14.00;;;;;;5079041;28;20076;-67
2021/11/02 09:22:53;;;;;;;5.50;1.15;;;10.20;14.40;;;;;;5088893;28;20048;-68
2021/11/02 09:25:24;;;;;;;2.95;1.25;;;10.20;15.40;;;;;;5101086;28;20050;-68
2021/11/02 09:27:54;;;;;;;6.80;1.67;;;10.10;17.40;;;;;;5098387;28;20100;-68
2021/11/02 09:30:25;;;;;;;2.95;1.40;;;10.10;17.50;;;;;;5096377;28;20109;-66
2021/11/02 09:32:58;;;;;;;2.88;1.33;;;9.90;20.00;;;;;;5098475;28;20039;-68
2021/11/02 09:35:35;;;;;;;5.35;1.48;;;9.80;19.20;;;;;;5100107;28;20139;-67
2021/11/02 09:38:18;;;;;;;4.53;1.80;;;9.70;21.40;;;;;;5105968;27;20048;-68
2021/11/02 09:41:31;;;;;;;3.05;1.40;;;9.80;22.70;;;;;;5097408;27;20088;-68
2021/11/02 09:44:57;;;;;;;5.38;1.52;;;9.60;23.90;;;;;;5083251;28;20043;-68
2021/11/02 09:47:48;;;;;;;3.25;1.27;;;9.50;27.10;;;;;;5099723;28;20043;-68
2021/11/02 09:50:44;;;;;;;3.55;1.13;;;9.40;27.30;;;;;;5099676;28;20491;-67
2021/11/02 09:53:52;;;;;;;15.05;6.13;;;9.30;26.30;;;;;;5091763;27;20282;-67
2021/11/02 09:56:54;;;;;;;4.07;1.58;;;9.20;27.20;;;;;;5079803;28;20048;-67
2021/11/02 09:59:55;;;;;;;4.45;1.90;;;9.20;29.90;;;;;;5083006;27;20036;-69
2021/11/02 10:03:03;;;;;;;2.10;0.85;;;9.10;29.10;;;;;;5096060;28;20028;-67
2021/11/02 10:05:54;;;;;;;5.78;1.38;;;9.00;32.40;;;;;;5084505;28;20051;-68
2021/11/02 10:08:44;;;;;;;4.30;1.23;;;9.20;36.00;;;;;;5099774;28;20047;-68
2021/11/02 10:11:26;;;;;;;2.90;0.90;;;9.10;34.40;;;;;;5079650;28;20419;-68
2021/11/02 10:14:26;;;;;;;5.95;2.63;;;9.10;32.90;;;;;;5098008;28;20044;-68
2021/11/02 10:17:01;;;;;;;;;;;9.10;34.80;;;;;;5100268;28;20047;-69
2021/11/02 10:20:00;;;;;;;3.13;0.80;;;9.10;37.20;;;;;;5101889;28;19919;-69
2021/11/02 10:22:56;;;;;;;4.25;0.98;;;9.00;34.90;;;;;;5093678;28;20487;-69
2021/11/02 10:25:47;;;;;;;6.47;1.40;;;9.10;35.10;;;;;;5085941;28;20078;-70
2021/11/02 10:28:51;;;;;;;2.53;1.35;;;9.10;36.20;;;;;;5087101;28;20560;-68
2021/11/02 10:31:33;;;;;;;2.35;1.38;;;9.10;35.50;;;;;;5095376;28;20093;-69
2021/11/02 10:34:09;;;;;;;2.65;1.15;;;9.10;34.80;;;;;;5099143;28;20055;-68
2021/11/02 10:36:51;;;;;;;4.45;1.13;;;9.10;35.40;;;;;;5103650;28;20056;-68
2021/11/02 10:39:31;;;;;;;;;;;9.10;35.60;;;;;;5101006;28;20070;-69
2021/11/02 10:42:14;;;;;;;4.80;1.38;;;9.10;35.30;;;;;;5073450;28;20047;-68
2021/11/02 10:44:46;;;;;;;3.72;0.98;;;9.10;36.30;;;;;;5079748;28;20044;-69
2021/11/02 10:47:23;;;;;;;2.35;1.48;;;9.10;35.90;;;;;;5100871;28;20514;-70
2021/11/02 10:50:06;;;;;;;3.25;1.50;;;9.20;36.70;;;;;;5100053;28;20040;-69
2021/11/02 10:52:39;;;;;;;26.05;14.93;;;9.20;35.90;;;;;;5094359;28;20064;-68
2021/11/02 10:55:35;;;;;;;4.40;1.42;;;9.20;37.40;;;;;;5097471;28;20499;-68
2021/11/02 10:58:32;;;;;;;3.00;1.33;;;9.10;37.00;;;;;;5100467;28;20046;-68
2021/11/02 11:01:03;;;;;;;2.83;1.52;;;9.00;37.30;;;;;;5092281;28;20688;-68
2021/11/02 11:03:33;;;;;;;3.88;1.48;;;9.00;37.10;;;;;;5096851;28;20054;-68
2021/11/02 11:06:04;;;;;;;4.90;1.80;;;9.00;37.20;;;;;;5100032;28;20043;-68
2021/11/02 11:08:39;;;;;;;4.45;2.08;;;9.00;39.80;;;;;;5097201;28;20046;-68
2021/11/02 11:11:09;;;;;;;2.33;1.27;;;9.00;38.60;;;;;;5096980;28;20087;-68
2021/11/02 11:13:39;;;;;;;5.68;1.40;;;9.10;37.20;;;;;;5098796;28;20089;-68
2021/11/02 11:16:12;;;;;;;2.53;1.42;;;9.10;39.50;;;;;;5101304;28;20048;-68
2021/11/02 11:18:51;;;;;;;2.78;1.40;;;9.10;38.60;;;;;;5098849;28;20048;-68
2021/11/02 11:21:23;;;;;;;3.67;1.60;;;9.20;37.30;;;;;;5071374;28;20036;-68
2021/11/02 11:24:07;;;;;;;3.60;1.40;;;9.30;37.50;;;;;;5097879;27;20525;-69
2021/11/02 11:26:47;;;;;;;5.00;1.50;;;9.20;37.60;;;;;;5079794;28;20118;-68
2021/11/02 11:29:22;;;;;;;6.50;3.28;;;9.20;38.70;;;;;;5077902;28;20381;-69
2021/11/02 11:31:51;;;;;;;2.53;1.35;;;9.20;38.00;;;;;;5067851;28;20048;-68
2021/11/02 11:34:30;;;;;;;3.03;1.92;;;9.20;37.30;;;;;;5083209;28;20055;-67
2021/11/02 11:37:06;;;;;;;3.70;1.60;;;9.30;37.40;;;;;;5093028;28;20638;-68
2021/11/02 11:39:39;;;;;;;4.93;2.10;;;9.30;38.20;;;;;;5096534;28;20048;-68
2021/11/02 11:42:07;;;;;;;2.95;1.60;;;9.40;38.40;;;;;;5088768;28;20093;-68
2021/11/02 11:44:43;;;;;;;6.10;2.40;;;9.40;37.50;;;;;;5077678;28;20052;-67
2021/11/02 11:47:23;;;;;;;4.35;1.75;;;9.40;37.50;;;;;;5078937;28;20198;-68
2021/11/02 11:50:18;;;;;;;4.25;1.85;;;9.40;35.10;;;;;;5079311;28;20939;-68
2021/11/02 11:52:48;;;;;;;5.25;1.58;;;9.50;35.30;;;;;;5074460;28;20319;-66
2021/11/02 11:55:27;;;;;;;4.07;1.60;;;9.60;31.70;;;;;;5078036;28;20067;-67
2021/11/02 11:58:10;;;;;;;6.00;2.00;;;9.80;34.10;;;;;;5081858;28;20469;-68
2021/11/02 12:00:41;;;;;;;2.90;1.88;;;9.80;31.60;;;;;;5073951;28;20048;-66
2021/11/02 12:03:30;;;;;;;2.58;1.58;;;9.90;31.60;;;;;;5073334;28;20393;-67
2021/11/02 12:06:04;;;;;;;2.13;1.13;;;9.90;29.60;;;;;;5075867;28;20051;-67
2021/11/02 12:08:46;;;;;;;8.77;3.90;;;9.90;28.50;;;;;;5071416;28;20052;-67
2021/11/02 12:11:19;;;;;;;13.90;8.50;;;10.10;28.90;;;;;;5071621;28;20044;-67
2021/11/02 12:13:56;;;;;;;5.10;1.92;;;10.20;26.10;;;;;;5073765;28;20036;-67
2021/11/02 12:16:35;;;;;;;5.72;2.00;;;10.30;26.10;;;;;;5077664;28;20094;-67
2021/11/02 12:19:11;;;;;;;1.80;1.30;;;10.40;27.50;;;;;;5066601;28;20508;-67
2021/11/02 12:21:47;;;;;;;4.85;1.00;;;10.40;26.60;;;;;;5089434;28;20312;-67
2021/11/02 12:24:20;;;;;;;1.42;0.93;;;10.50;25.60;;;;;;5092037;28;20085;-67
2021/11/02 12:26:50;;;;;;;2.08;1.35;;;10.40;25.30;;;;;;5078807;28;20044;-68
2021/11/02 12:29:28;;;;;;;1.90;1.45;;;10.40;23.40;;;;;;5080478;28;20280;-68
2021/11/02 12:32:11;;;;;;;2.85;1.70;;;10.40;24.90;;;;;;5073292;28;20458;-67
2021/11/02 12:34:46;;;;;;;2.53;1.42;;;10.30;22.80;;;;;;5074492;28;20059;-67
2021/11/02 12:37:15;;;;;;;5.07;1.05;;;10.30;25.70;;;;;;5086554;28;20338;-67
2021/11/02 12:39:50;;;;;;;2.72;1.13;;;10.20;21.90;;;;;;5089180;28;20043;-67
2021/11/02 12:42:33;;;;;;;2.25;0.88;;;10.10;22.10;;;;;;5071661;28;20424;-68
2021/11/02 12:45:02;;;;;;;0.70;0.50;;;10.20;20.90;;;;;;5074628;28;20640;-67
2021/11/02 12:47:32;;;;;;;0.73;0.45;;;10.20;18.70;;;;;;5082167;28;20091;-68
2021/11/02 12:50:07;;;;;;;2.13;0.50;;;10.20;18.70;;;;;;5077851;28;20067;-68
2021/11/02 12:52:39;;;;;;;1.25;0.82;;;10.10;15.70;;;;;;5070967;28;20216;-67
2021/11/02 12:55:13;;;;;;;0.90;0.60;;;10.20;16.30;;;;;;5099266;27;20419;-67
2021/11/02 12:57:44;;;;;;;1.08;0.70;;;10.20;14.60;;;;;;5077437;28;20044;-66
2021/11/02 13:00:14;;;;;;;0.40;0.30;;;10.10;14.60;;;;;;5078365;28;20054;-67
2021/11/02 13:02:52;;;;;;;0.63;0.30;;;10.10;13.80;;;;;;5058245;28;20040;-67
2021/11/02 13:05:23;;;;;;;2.17;0.70;;;10.00;12.70;;;;;;5072509;28;20567;-67
2021/11/02 13:08:06;;;;;;;1.65;0.90;;;10.00;16.20;;;;;;5076746;28;20316;-67
2021/11/02 13:10:39;;;;;;;3.03;1.20;;;9.50;25.70;;;;;;5077841;28;20052;-67
2021/11/02 13:13:09;;;;;;;2.40;1.10;;;9.60;28.10;;;;;;5078722;28;20467;-68
2021/11/02 13:15:48;;;;;;;2.45;0.95;;;9.70;26.40;;;;;;5099209;28;21021;-67
2021/11/02 13:18:29;;;;;;;3.60;1.52;;;9.70;26.90;;;;;;5096630;28;20513;-68
2021/11/02 13:21:18;;;;;;;2.03;1.52;;;9.60;31.70;;;;;;5095772;27;20093;-67
2021/11/02 13:24:04;;;;;;;3.92;1.75;;;9.90;34.00;;;;;;5080113;28;20036;-67
2021/11/02 13:26:34;;;;;;;2.38;1.42;;;9.70;30.60;;;;;;5098315;28;20324;-67
2021/11/02 13:29:12;;;;;;;2.42;1.45;;;9.70;32.80;;;;;;5097272;28;20626;-68
2021/11/02 13:31:46;;;;;;;3.92;1.35;;;9.80;31.00;;;;;;5091570;27;20104;-68
2021/11/02 13:34:16;;;;;;;2.08;1.33;;;9.80;31.60;;;;;;5099182;28;20040;-68
2021/11/02 13:37:01;;;;;;;1.90;1.60;;;10.00;29.90;;;;;;5097114;28;20049;-68
2021/11/02 13:39:51;;;;;;;3.70;1.60;;;10.00;27.30;;;;;;5096624;28;20179;-67
2021/11/02 13:42:46;;;;;;;2.60;1.75;;;10.00;28.80;;;;;;5087662;28;20396;-68
2021/11/02 13:45:24;;;;;;;3.08;1.65;;;10.00;27.20;;;;;;5095878;28;20061;-68
2021/11/02 13:47:57;;;;;;;3.47;1.80;;;10.00;28.80;;;;;;5078030;28;20120;-68
2021/11/02 13:50:26;;;;;;;3.22;1.60;;;10.00;29.50;;;;;;5091373;28;20219;-68
2021/11/02 13:52:56;;;;;;;3.72;1.23;;;10.10;29.00;;;;;;5087859;28;20312;-67
2021/11/02 13:55:29;;;;;;;2.75;1.30;;;10.00;25.50;;;;;;5074476;28;20047;-67
2021/11/02 13:57:58;;;;;;;2.20;1.35;;;10.00;25.60;;;;;;5093681;28;20048;-67
2021/11/02 14:00:27;;;;;;;2.22;1.50;;;10.10;26.10;;;;;;5091737;28;20124;-67
2021/11/02 14:03:05;;;;;;;1.38;1.00;;;10.20;23.50;;;;;;5088244;28;20047;-67
2021/11/02 14:05:34;;;;;;;2.08;0.93;;;10.30;22.30;;;;;;5060636;28;20040;-67
2021/11/02 14:08:07;;;;;;;1.90;0.77;;;10.30;18.30;;;;;;5092083;28;20047;-67
2021/11/02 14:10:51;;;;;;;2.33;0.70;;;10.40;19.10;;;;;;5088788;28;20455;-67
2021/11/02 14:13:41;;;;;;;2.83;0.40;;;10.60;17.00;;;;;;5089292;28;20130;-68
2021/11/02 14:16:09;;;;;;;0.88;0.40;;;10.70;11.90;;;;;;5094022;28;20111;-66
2021/11/02 14:18:40;;;;;;;1.10;0.57;;;10.80;10.00;;;;;;5093564;28;20461;-67
2021/11/02 14:21:50;;;;;;;0.55;0.20;;;10.90;9.20;;;;;;5083620;28;20044;-67
2021/11/02 14:24:31;;;;;;;1.55;0.47;;;10.80;7.30;;;;;;5095483;28;20162;-68
2021/11/02 14:27:08;;;;;;;0.65;0.40;;;10.90;7.40;;;;;;5093398;28;20048;-68
2021/11/02 14:29:47;;;;;;;0.73;0.45;;;10.80;6.90;;;;;;5061518;28;20051;-68
2021/11/02 14:32:50;;;;;;;3.20;0.50;;;10.70;6.20;;;;;;5067542;28;20101;-67
2021/11/02 14:35:40;;;;;;;0.60;0.20;;;10.70;7.20;;;;;;5075743;28;20139;-68
2021/11/02 14:38:17;;;;;;;0.73;0.30;;;10.70;8.30;;;;;;5091206;28;20040;-68
2021/11/02 14:41:29;;;;;;;1.10;0.40;;;10.70;7.50;;;;;;5073889;28;20051;-68
2021/11/02 14:44:26;;;;;;;1.50;0.45;;;10.60;8.20;;;;;;5096751;28;20466;-68
2021/11/02 14:46:57;;;;;;;1.00;0.50;;;10.60;9.10;;;;;;5089663;28;20530;-67
2021/11/02 14:49:41;;;;;;;1.00;0.30;;;10.60;9.10;;;;;;5097198;27;20044;-68
2021/11/02 14:52:12;;;;;;;0.93;0.43;;;10.60;9.40;;;;;;5094195;28;20444;-68
2021/11/02 14:54:43;;;;;;;0.32;0.32;;;10.70;9.10;;;;;;5099411;27;20044;-68
2021/11/02 14:57:53;;;;;;;1.25;0.60;;;10.60;9.70;;;;;;5099648;28;20051;-68
2021/11/02 15:00:42;;;;;;;5.63;3.50;;;10.60;9.30;;;;;;5095547;28;20396;-68
2021/11/02 15:03:22;;;;;;;3.38;1.10;;;10.70;10.40;;;;;;5096290;28;20297;-67
2021/11/02 15:05:52;;;;;;;0.65;0.40;;;10.60;10.50;;;;;;5097996;27;20487;-68
2021/11/02 15:08:24;;;;;;;0.88;0.52;;;10.50;8.20;;;;;;5101301;27;20126;-68
2021/11/02 15:10:52;;;;;;;1.00;0.52;;;10.60;9.80;;;;;;5100877;27;20111;-68
2021/11/02 15:13:24;;;;;;;1.20;0.52;;;10.60;10.10;;;;;;5092617;28;20820;-68
2021/11/02 15:15:57;;;;;;;2.38;0.70;;;10.70;8.50;;;;;;5096568;28;20495;-68
2021/11/02 15:18:42;;;;;;;1.13;0.50;;;10.80;8.30;;;;;;5101633;27;20426;-68
2021/11/02 15:21:17;;;;;;;3.70;0.70;;;10.70;8.30;;;;;;5077008;28;20027;-68
2021/11/02 15:23:47;;;;;;;0.90;0.43;;;10.70;9.40;;;;;;5104526;27;20047;-67
2021/11/02 15:26:47;;;;;;;0.93;0.50;;;10.60;8.80;;;;;;5104173;27;20044;-67
2021/11/02 15:29:16;;;;;;;1.02;0.60;;;10.60;7.50;;;;;;5104775;27;20364;-67
2021/11/02 15:32:05;;;;;;;1.05;0.40;;;10.50;8.60;;;;;;5096392;27;20050;-67
2021/11/02 15:34:42;;;;;;;2.30;1.35;;;10.50;8.10;;;;;;5106024;27;20055;-68
2021/11/02 15:37:13;;;;;;;0.80;0.50;;;10.50;8.20;;;;;;5097671;28;20503;-68
2021/11/02 15:39:54;;;;;;;1.40;0.73;;;10.50;8.10;;;;;;5099345;27;20541;-67
2021/11/02 15:42:30;;;;;;;1.45;0.47;;;10.40;8.60;;;;;;5095267;28;20170;-67
2021/11/02 15:45:04;;;;;;;1.08;0.50;;;10.30;9.30;;;;;;5099329;28;20083;-68
2021/11/02 15:47:35;;;;;;;0.90;0.50;;;10.20;8.50;;;;;;5095303;28;20083;-68
2021/11/02 15:50:08;;;;;;;4.50;0.63;;;10.00;10.10;;;;;;5095496;28;20418;-68
2021/11/02 15:52:39;;;;;;;0.75;0.47;;;9.90;11.30;;;;;;5091623;28;20127;-68
2021/11/02 15:55:12;;;;;;;0.75;0.50;;;9.80;11.50;;;;;;5094806;28;20089;-68
2021/11/02 15:57:48;;;;;;;2.50;0.70;;;9.70;11.90;;;;;;5097333;28;20052;-67
2021/11/02 16:00:17;;;;;;;4.55;2.47;;;9.70;12.00;;;;;;5094825;28;20147;-68
2021/11/02 16:02:49;;;;;;;1.92;0.80;;;9.60;12.00;;;;;;5088597;28;20048;-68
2021/11/02 16:05:24;;;;;;;0.90;0.70;;;9.50;12.30;;;;;;5100105;28;20502;-68
2021/11/02 16:07:54;;;;;;;13.00;0.82;;;9.50;12.60;;;;;;5083456;28;20428;-67
2021/11/02 16:10:25;;;;;;;1.17;0.80;;;9.50;12.50;;;;;;5072995;28;20540;-68
2021/11/02 16:12:56;;;;;;;1.23;0.77;;;9.40;11.90;;;;;;5074892;28;20300;-69
2021/11/02 16:15:28;;;;;;;1.88;1.00;;;9.30;13.00;;;;;;5076519;28;20054;-69
2021/11/02 16:18:00;;;;;;;2.33;1.00;;;9.30;13.60;;;;;;5094949;28;20097;-69
2021/11/02 16:20:32;;;;;;;1.55;0.90;;;9.30;13.10;;;;;;5088797;28;20078;-69
2021/11/02 16:23:07;;;;;;;1.50;0.90;;;9.20;13.20;;;;;;5087677;28;20064;-68
2021/11/02 16:25:59;;;;;;;1.02;0.68;;;9.20;14.20;;;;;;5092322;28;20423;-68
2021/11/02 16:28:31;;;;;;;2.03;0.85;;;9.20;13.70;;;;;;5097219;28;20048;-68
2021/11/02 16:31:01;;;;;;;1.95;0.68;;;9.20;14.20;;;;;;5073382;28;20048;-68
2021/11/02 16:33:35;;;;;;;1.58;0.70;;;9.20;15.00;;;;;;5098524;27;20051;-68
2021/11/02 16:36:17;;;;;;;2.35;0.70;;;9.20;13.30;;;;;;5098305;27;20036;-69
2021/11/02 16:38:46;;;;;;;0.63;0.38;;;8.90;14.70;;;;;;5099159;27;20504;-68
2021/11/02 16:41:21;;;;;;;1.27;0.60;;;8.80;15.00;;;;;;5067626;28;20524;-68
2021/11/02 16:44:01;;;;;;;2.58;0.50;;;8.80;17.60;;;;;;5095642;28;20043;-67
2021/11/02 16:46:32;;;;;;;0.95;0.77;;;8.70;18.40;;;;;;5093673;28;20044;-68
2021/11/02 16:49:04;;;;;;;0.60;0.43;;;8.60;19.00;;;;;;5094587;28;20059;-68
2021/11/02 16:51:46;;;;;;;0.50;0.30;;;8.40;20.90;;;;;;5090444;28;20047;-68
2021/11/02 16:54:21;;;;;;;1.33;0.65;;;8.30;22.60;;;;;;5077590;28;20039;-68
2021/11/02 16:57:01;;;;;;;0.98;0.68;;;8.20;24.60;;;;;;5064034;28;20040;-68
2021/11/02 17:00:01;;;;;;;2.10;0.90;;;8.10;27.90;;;;;;5066849;27;20093;-68
2021/11/02 17:02:32;;;;;;;2.50;0.80;;;7.90;28.50;;;;;;5041519;27;20039;-68
2021/11/02 17:05:09;;;;;;;2.42;1.52;;;7.90;28.30;;;;;;5092466;27;20047;-68
2021/11/02 17:07:41;;;;;;;4.57;1.90;;;7.90;30.10;;;;;;5100056;27;20607;-68
2021/11/02 17:10:32;;;;;;;2.15;1.20;;;7.70;31.80;;;;;;5096034;28;20120;-68
2021/11/02 17:13:04;;;;;;;3.30;1.15;;;7.70;31.80;;;;;;5091855;28;20130;-68
2021/11/02 17:15:36;;;;;;;3.10;1.10;;;7.60;33.70;;;;;;5096600;28;20637;-67
2021/11/02 17:18:06;;;;;;;1.15;0.77;;;7.70;35.20;;;;;;5094836;28;20127;-68
2021/11/02 17:20:36;;;;;;;1.50;1.10;;;7.60;35.20;;;;;;5093976;28;21018;-68
2021/11/02 17:23:06;;;;;;;3.05;1.30;;;7.60;36.00;;;;;;5093463;28;20043;-68
2021/11/02 17:25:34;;;;;;;1.73;1.15;;;7.60;36.10;;;;;;5095841;28;20423;-68
2021/11/02 17:28:04;;;;;;;2.22;1.60;;;7.60;38.40;;;;;;5096318;28;20051;-68
2021/11/02 17:30:34;;;;;;;3.05;1.50;;;7.80;39.10;;;;;;5094419;28;20052;-68
2021/11/02 17:33:06;;;;;;;2.60;1.52;;;7.90;36.40;;;;;;5087827;28;20046;-68
2021/11/02 17:35:36;;;;;;;2.60;1.45;;;7.80;36.20;;;;;;5096455;28;20132;-67
2021/11/02 17:38:04;;;;;;;2.38;1.52;;;7.70;36.00;;;;;;5097241;28;20048;-67
2021/11/02 17:40:35;;;;;;;3.33;1.60;;;7.60;36.90;;;;;;5091750;28;20048;-67
2021/11/02 17:43:08;;;;;;;2.63;1.60;;;7.60;37.90;;;;;;5089835;28;20081;-68
2021/11/02 17:45:41;;;;;;;4.53;2.00;;;7.60;38.70;;;;;;5093522;28;20708;-66
2021/11/02 17:48:13;;;;;;;5.40;2.10;;;7.60;38.70;;;;;;5075766;28;20104;-67
2021/11/02 17:50:47;;;;;;;4.18;1.88;;;7.60;39.10;;;;;;5093188;28;20047;-67
2021/11/02 17:53:15;;;;;;;2.70;1.85;;;7.60;39.00;;;;;;5087256;28;20131;-69